createdAt,value
2017-09-28T00:00:39.465Z,4.60
2017-09-28T00:03:12.172Z,4.30
2017-09-28T00:05:41.335Z,4.57
2017-09-28T00:08:10.657Z,4.30
2017-09-28T00:10:39.774Z,4.70
2017-09-28T00:13:08.913Z,4.60
2017-09-28T00:15:38.057Z,4.80
2017-09-28T00:18:20.737Z,4.93
2017-09-28T00:20:49.850Z,4.50
2017-09-28T00:23:18.987Z,4.70
2017-09-28T00:25:48.120Z,5.67
2017-09-28T00:28:17.550Z,5.00
2017-09-28T00:30:46.774Z,5.47
2017-09-28T00:33:15.917Z,4.80
2017-09-28T00:35:45.431Z,4.70
2017-09-28T00:38:14.612Z,4.33
2017-09-28T00:40:43.733Z,4.80
2017-09-28T00:43:12.844Z,5.70
2017-09-28T00:45:42.053Z,5.53
2017-09-28T00:48:11.198Z,5.23
2017-09-28T00:50:42.260Z,5.40
2017-09-28T00:53:11.405Z,5.03
2017-09-28T00:55:40.569Z,4.83
2017-09-28T00:58:15.746Z,4.90
2017-09-28T01:00:44.953Z,5.10
2017-09-28T01:03:14.097Z,5.67
2017-09-28T01:05:43.213Z,5.33
2017-09-28T01:08:12.367Z,4.90
2017-09-28T01:10:45.368Z,5.13
2017-09-28T01:13:15.928Z,4.80
2017-09-28T01:15:45.431Z,5.07
2017-09-28T01:18:14.579Z,5.30
2017-09-28T01:20:43.893Z,5.20
2017-09-28T01:23:13.080Z,5.83
2017-09-28T01:25:42.234Z,4.90
2017-09-28T01:28:11.633Z,5.60
2017-09-28T01:30:41.317Z,4.43
2017-09-28T01:33:25.706Z,5.03
2017-09-28T01:36:01.499Z,4.27
2017-09-28T01:38:30.706Z,4.70
2017-09-28T01:41:07.265Z,4.50
2017-09-28T01:43:36.652Z,4.60
2017-09-28T01:46:14.561Z,4.93
2017-09-28T01:48:43.781Z,4.00
2017-09-28T01:51:12.886Z,5.07
2017-09-28T01:53:42.074Z,5.13
2017-09-28T01:56:11.419Z,5.13
2017-09-28T01:58:40.706Z,5.50
2017-09-28T02:01:23.853Z,5.27
2017-09-28T02:03:53.216Z,4.87
2017-09-28T02:06:22.465Z,5.33
2017-09-28T02:08:51.565Z,5.17
2017-09-28T02:11:20.660Z,4.30
2017-09-28T02:13:50.076Z,5.20
2017-09-28T02:16:21.529Z,4.67
2017-09-28T02:18:51.134Z,5.20
2017-09-28T02:21:20.294Z,4.80
2017-09-28T02:23:55.683Z,4.50
2017-09-28T02:26:24.889Z,4.07
2017-09-28T02:28:54.065Z,5.10
2017-09-28T02:31:23.229Z,4.33
2017-09-28T02:33:52.554Z,5.00
2017-09-28T02:36:22.079Z,4.63
2017-09-28T02:38:51.418Z,4.50
2017-09-28T02:41:20.554Z,4.43
2017-09-28T02:43:49.982Z,4.43
2017-09-28T02:46:19.443Z,5.33
2017-09-28T02:48:48.598Z,4.47
2017-09-28T02:51:17.714Z,5.50
2017-09-28T02:53:58.951Z,5.87
2017-09-28T02:56:28.424Z,5.70
2017-09-28T02:58:57.586Z,5.20
2017-09-28T03:01:26.932Z,5.13
2017-09-28T03:03:59.321Z,5.60
2017-09-28T03:06:28.706Z,4.90
2017-09-28T03:08:57.857Z,4.53
2017-09-28T03:11:26.952Z,5.50
2017-09-28T03:14:03.854Z,5.27
2017-09-28T03:16:33.026Z,5.80
2017-09-28T03:19:05.194Z,4.57
2017-09-28T03:21:35.207Z,4.70
2017-09-28T03:24:04.358Z,5.33
2017-09-28T03:26:33.863Z,5.07
2017-09-28T03:29:02.962Z,5.43
2017-09-28T03:31:32.106Z,5.70
2017-09-28T03:34:01.252Z,4.87
2017-09-28T03:36:30.401Z,6.30
2017-09-28T03:38:59.533Z,6.80
2017-09-28T03:41:28.634Z,6.40
2017-09-28T03:44:04.255Z,6.20
2017-09-28T03:46:33.402Z,7.03
2017-09-28T03:49:02.513Z,7.40
2017-09-28T03:51:31.825Z,6.70
2017-09-28T03:54:00.957Z,8.00
2017-09-28T03:56:30.065Z,7.47
2017-09-28T03:58:59.202Z,7.10
2017-09-28T04:01:28.317Z,6.97
2017-09-28T04:04:03.580Z,6.17
2017-09-28T04:06:48.761Z,6.37
2017-09-28T04:09:24.660Z,7.13
2017-09-28T04:11:53.819Z,9.80
2017-09-28T04:14:22.985Z,10.60
2017-09-28T04:16:58.836Z,15.10
2017-09-28T04:19:27.980Z,13.20
2017-09-28T04:21:57.068Z,14.60
2017-09-28T04:24:26.213Z,13.40
2017-09-28T04:26:55.360Z,12.30
2017-09-28T04:29:24.535Z,10.73
2017-09-28T04:32:04.350Z,8.23
2017-09-28T04:34:34.869Z,15.90
2017-09-28T04:37:05.112Z,10.30
2017-09-28T04:39:40.308Z,9.30
2017-09-28T04:42:22.601Z,10.07
2017-09-28T04:44:51.738Z,10.90
2017-09-28T04:47:20.865Z,10.80
2017-09-28T04:50:05.162Z,12.47
2017-09-28T04:52:34.279Z,15.80
2017-09-28T04:55:09.619Z,13.10
2017-09-28T04:57:38.756Z,16.73
2017-09-28T05:00:27.285Z,17.60
2017-09-28T05:02:56.457Z,15.63
2017-09-28T05:05:39.773Z,15.53
2017-09-28T05:08:09.033Z,10.63
2017-09-28T05:10:38.240Z,14.07
2017-09-28T05:13:07.385Z,13.50
2017-09-28T05:15:36.552Z,12.57
2017-09-28T05:18:21.860Z,14.83
2017-09-28T05:20:51.013Z,14.30
2017-09-28T05:23:27.616Z,14.67
2017-09-28T05:25:56.825Z,15.60
2017-09-28T05:28:25.933Z,16.33
2017-09-28T05:30:55.237Z,16.93
2017-09-28T05:33:24.385Z,13.97
2017-09-28T05:35:53.713Z,16.10
2017-09-28T05:38:22.913Z,12.90
2017-09-28T05:40:52.121Z,11.50
2017-09-28T05:43:21.292Z,11.00
2017-09-28T05:46:03.941Z,10.70
2017-09-28T05:48:33.526Z,12.00
2017-09-28T05:51:02.701Z,11.30
2017-09-28T05:53:31.810Z,10.03
2017-09-28T05:56:00.941Z,14.27
2017-09-28T05:58:30.118Z,12.00
2017-09-28T06:00:59.209Z,12.77
2017-09-28T06:03:35.694Z,11.03
2017-09-28T06:06:04.865Z,14.30
2017-09-28T06:08:34.878Z,13.90
2017-09-28T06:11:04.001Z,15.00
2017-09-28T06:13:46.141Z,17.07
2017-09-28T06:16:15.417Z,14.60
2017-09-28T06:18:45.632Z,12.33
2017-09-28T06:21:14.765Z,12.50
2017-09-28T06:23:43.926Z,10.30
2017-09-28T06:26:14.694Z,18.17
2017-09-28T06:28:43.873Z,15.10
2017-09-28T06:31:13.036Z,13.70
2017-09-28T06:33:55.678Z,13.10
2017-09-28T06:36:24.927Z,13.27
2017-09-28T06:38:54.091Z,13.73
2017-09-28T06:41:23.262Z,12.97
2017-09-28T06:43:52.365Z,9.10
2017-09-28T06:46:21.482Z,11.30
2017-09-28T06:48:52.496Z,14.13
2017-09-28T06:51:23.873Z,10.87
2017-09-28T06:53:53.034Z,9.17
2017-09-28T06:56:22.199Z,10.20
2017-09-28T06:58:51.343Z,8.03
2017-09-28T07:01:20.514Z,8.80
2017-09-28T07:03:49.702Z,10.03
2017-09-28T07:06:18.840Z,7.47
2017-09-28T07:08:48.292Z,9.30
2017-09-28T07:11:17.554Z,10.10
2017-09-28T07:13:47.318Z,10.60
2017-09-28T07:16:16.474Z,10.63
2017-09-28T07:18:59.260Z,9.50
2017-09-28T07:21:28.487Z,8.97
2017-09-28T07:23:57.609Z,7.90
2017-09-28T07:26:26.954Z,8.40
2017-09-28T07:28:56.283Z,7.30
2017-09-28T07:31:25.506Z,6.07
2017-09-28T07:33:54.875Z,7.77
2017-09-28T07:36:24.010Z,6.50
2017-09-28T07:38:53.131Z,5.30
2017-09-28T07:41:22.260Z,5.97
2017-09-28T07:43:51.450Z,7.90
2017-09-28T07:46:20.770Z,9.90
2017-09-28T07:49:02.354Z,10.40
2017-09-28T07:51:42.476Z,5.70
2017-09-28T07:54:11.620Z,6.43
2017-09-28T07:56:42.996Z,5.43
2017-09-28T07:59:12.170Z,5.27
2017-09-28T08:01:41.754Z,4.83
2017-09-28T08:04:10.956Z,4.67
2017-09-28T08:06:40.153Z,4.00
2017-09-28T08:09:09.313Z,4.80
2017-09-28T08:11:38.545Z,4.23
2017-09-28T08:14:07.901Z,4.37
2017-09-28T08:16:43.040Z,5.07
2017-09-28T08:19:14.455Z,4.53
2017-09-28T08:21:43.598Z,4.73
2017-09-28T08:24:12.757Z,4.40
2017-09-28T08:26:41.858Z,4.50
2017-09-28T08:29:11.430Z,5.17
2017-09-28T08:31:40.772Z,4.67
2017-09-28T08:34:10.337Z,4.27
2017-09-28T08:36:39.537Z,4.53
2017-09-28T08:39:10.929Z,4.17
2017-09-28T08:41:40.061Z,4.33
2017-09-28T08:44:09.272Z,4.67
2017-09-28T08:46:45.443Z,4.23
2017-09-28T08:49:14.774Z,4.50
2017-09-28T08:51:56.637Z,4.00
2017-09-28T08:54:25.965Z,3.83
2017-09-28T08:56:55.105Z,3.67
2017-09-28T08:59:30.468Z,4.53
2017-09-28T09:01:59.581Z,4.20
2017-09-28T09:04:36.160Z,4.20
2017-09-28T09:07:05.311Z,4.70
2017-09-28T09:09:34.463Z,4.00
2017-09-28T09:12:03.582Z,4.47
2017-09-28T09:14:32.865Z,4.20
2017-09-28T09:17:01.996Z,4.63
2017-09-28T09:19:46.037Z,4.83
2017-09-28T09:22:15.178Z,4.73
2017-09-28T09:24:52.446Z,4.53
2017-09-28T09:27:21.583Z,4.60
2017-09-28T09:30:11.770Z,4.60
2017-09-28T09:32:41.114Z,4.80
2017-09-28T09:35:10.522Z,5.03
2017-09-28T09:37:39.729Z,4.70
2017-09-28T09:40:22.145Z,5.00
2017-09-28T09:42:51.298Z,4.83
2017-09-28T09:45:20.429Z,5.70
2017-09-28T09:47:49.577Z,5.87
2017-09-28T09:50:18.764Z,5.43
2017-09-28T09:52:48.061Z,7.00
2017-09-28T09:55:30.120Z,5.20
2017-09-28T09:57:59.407Z,5.83
2017-09-28T10:00:42.017Z,5.30
2017-09-28T10:03:11.148Z,5.40
2017-09-28T10:05:40.275Z,5.50
2017-09-28T10:08:10.969Z,6.07
2017-09-28T10:10:54.164Z,5.93
2017-09-28T10:13:25.659Z,5.10
2017-09-28T10:15:56.894Z,6.10
2017-09-28T10:18:26.225Z,6.07
2017-09-28T10:20:55.497Z,5.10
2017-09-28T10:23:24.600Z,5.97
2017-09-28T10:25:54.120Z,5.10
2017-09-28T10:28:23.246Z,5.60
2017-09-28T10:30:52.355Z,5.53
2017-09-28T10:33:42.137Z,5.90
2017-09-28T10:36:11.271Z,6.63
2017-09-28T10:38:41.229Z,5.47
2017-09-28T10:41:10.342Z,5.60
2017-09-28T10:43:39.468Z,5.90
2017-09-28T10:46:22.809Z,5.47
2017-09-28T10:48:52.206Z,4.63
2017-09-28T10:51:28.657Z,5.57
2017-09-28T10:53:57.762Z,5.00
2017-09-28T10:56:29.063Z,5.50
2017-09-28T10:58:58.806Z,5.77
2017-09-28T11:01:27.969Z,5.20
2017-09-28T11:03:57.221Z,5.60
2017-09-28T11:06:26.572Z,6.20
2017-09-28T11:08:56.538Z,5.97
2017-09-28T11:11:25.643Z,5.40
2017-09-28T11:13:54.769Z,5.60
2017-09-28T11:16:24.087Z,6.00
2017-09-28T11:18:53.304Z,5.60
2017-09-28T11:21:22.430Z,5.73
2017-09-28T11:23:51.802Z,5.60
2017-09-28T11:26:20.984Z,5.60
2017-09-28T11:28:50.153Z,4.70
2017-09-28T11:31:19.290Z,5.30
2017-09-28T11:33:49.336Z,4.47
2017-09-28T11:36:18.482Z,5.60
2017-09-28T11:38:48.478Z,5.17
2017-09-28T11:41:17.613Z,5.80
2017-09-28T11:43:46.738Z,5.47
2017-09-28T11:46:15.879Z,5.30
2017-09-28T11:48:45.010Z,5.80
2017-09-28T11:51:27.369Z,5.20
2017-09-28T11:53:56.793Z,5.10
2017-09-28T11:56:27.539Z,4.70
2017-09-28T11:58:57.430Z,4.50
2017-09-28T12:01:26.571Z,4.00
2017-09-28T12:04:08.930Z,4.43
2017-09-28T12:06:38.122Z,3.80
2017-09-28T12:09:15.647Z,3.70
2017-09-28T12:11:44.773Z,3.63
2017-09-28T12:14:13.986Z,3.83
2017-09-28T12:16:43.118Z,3.50
2017-09-28T12:19:20.100Z,3.40
2017-09-28T12:21:49.228Z,3.10
2017-09-28T12:24:30.342Z,3.20
2017-09-28T12:26:59.784Z,3.27
2017-09-28T12:29:28.941Z,3.40
2017-09-28T12:31:58.070Z,3.37
2017-09-28T12:34:27.345Z,3.30
2017-09-28T12:36:56.646Z,3.53
2017-09-28T12:39:25.778Z,3.90
2017-09-28T12:42:07.705Z,3.27
2017-09-28T12:44:36.841Z,3.53
2017-09-28T12:47:05.981Z,3.67
2017-09-28T12:49:35.341Z,3.70
2017-09-28T12:52:04.463Z,3.83
2017-09-28T12:54:34.864Z,3.50
2017-09-28T12:57:04.247Z,3.80
2017-09-28T12:59:33.382Z,3.60
2017-09-28T13:02:02.513Z,3.10
2017-09-28T13:04:31.670Z,3.40
2017-09-28T13:07:00.831Z,3.97
2017-09-28T13:09:37.393Z,4.27
2017-09-28T13:12:06.538Z,3.23
2017-09-28T13:14:48.001Z,5.10
2017-09-28T13:17:18.652Z,4.30
2017-09-28T13:19:48.050Z,3.77
2017-09-28T13:22:17.203Z,3.40
2017-09-28T13:24:46.553Z,3.90
2017-09-28T13:27:15.688Z,3.43
2017-09-28T13:29:44.939Z,3.70
2017-09-28T13:32:14.077Z,3.60
2017-09-28T13:34:43.238Z,3.73
2017-09-28T13:37:12.349Z,3.20
2017-09-28T13:39:53.785Z,3.60
2017-09-28T13:42:22.925Z,3.90
2017-09-28T13:44:52.295Z,2.80
2017-09-28T13:47:28.610Z,3.25
2017-09-28T13:49:57.727Z,3.08
2017-09-28T13:52:40.838Z,2.80
2017-09-28T13:55:09.958Z,3.15
2017-09-28T13:57:39.119Z,3.17
2017-09-28T14:00:12.817Z,3.62
2017-09-28T14:02:53.449Z,2.60
2017-09-28T14:05:22.792Z,3.15
2017-09-28T14:07:52.166Z,3.15
2017-09-28T14:10:34.325Z,3.00
2017-09-28T14:13:10.841Z,2.60
2017-09-28T14:15:40.062Z,2.70
2017-09-28T14:18:09.396Z,2.30
2017-09-28T14:20:38.536Z,2.60
2017-09-28T14:23:07.742Z,2.37
2017-09-28T14:25:44.665Z,2.50
2017-09-28T14:28:13.788Z,2.22
2017-09-28T14:30:42.949Z,2.10
2017-09-28T14:33:12.042Z,2.30
2017-09-28T14:35:41.182Z,2.30
2017-09-28T14:38:17.117Z,2.47
2017-09-28T14:40:53.506Z,2.80
2017-09-28T14:43:23.120Z,2.55
2017-09-28T14:45:52.469Z,2.47
2017-09-28T14:48:21.586Z,2.67
2017-09-28T14:50:50.691Z,2.15
2017-09-28T14:53:19.842Z,2.17
2017-09-28T14:55:52.821Z,2.35
2017-09-28T14:58:21.954Z,2.62
2017-09-28T15:00:51.096Z,2.50
2017-09-28T15:03:20.678Z,2.55
2017-09-28T15:05:49.854Z,2.58
2017-09-28T15:08:18.965Z,2.37
2017-09-28T15:10:48.078Z,2.15
2017-09-28T15:13:17.255Z,2.35
2017-09-28T15:15:46.433Z,2.25
2017-09-28T15:18:15.582Z,2.85
2017-09-28T15:20:44.725Z,2.37
2017-09-28T15:23:13.855Z,2.33
2017-09-28T15:25:43.195Z,2.50
2017-09-28T15:28:12.301Z,2.65
2017-09-28T15:30:41.450Z,2.47
2017-09-28T15:33:10.669Z,2.53
2017-09-28T15:35:39.797Z,2.83
2017-09-28T15:38:21.091Z,2.90
2017-09-28T15:40:50.498Z,2.80
2017-09-28T15:43:19.701Z,2.90
2017-09-28T15:45:48.885Z,2.97
2017-09-28T15:48:25.937Z,2.80
2017-09-28T15:50:55.021Z,3.20
2017-09-28T15:53:24.170Z,3.05
2017-09-28T15:56:00.571Z,3.50
2017-09-28T15:58:29.735Z,2.85
2017-09-28T16:00:58.881Z,2.47
2017-09-28T16:03:28.057Z,3.12
2017-09-28T16:06:03.458Z,2.90
2017-09-28T16:08:32.786Z,3.40
2017-09-28T16:11:01.958Z,3.80
2017-09-28T16:13:31.382Z,3.40
2017-09-28T16:16:00.628Z,3.47
2017-09-28T16:18:29.975Z,3.40
2017-09-28T16:20:59.321Z,3.83
2017-09-28T16:23:28.458Z,3.93
2017-09-28T16:25:57.703Z,3.57
2017-09-28T16:28:33.921Z,3.20
2017-09-28T16:31:03.247Z,3.60
2017-09-28T16:33:32.377Z,3.57
2017-09-28T16:36:01.493Z,3.90
2017-09-28T16:38:30.671Z,3.73
2017-09-28T16:40:59.831Z,3.80
2017-09-28T16:43:42.760Z,4.43
2017-09-28T16:46:11.920Z,4.03
2017-09-28T16:48:41.236Z,4.10
2017-09-28T16:51:10.857Z,3.70
2017-09-28T16:53:53.545Z,4.50
2017-09-28T16:56:23.641Z,3.87
2017-09-28T16:58:52.777Z,4.70
2017-09-28T17:01:22.202Z,4.00
2017-09-28T17:03:51.443Z,4.77
2017-09-28T17:06:20.578Z,4.67
2017-09-28T17:08:50.793Z,3.80
2017-09-28T17:11:19.955Z,4.37
2017-09-28T17:13:49.046Z,4.97
2017-09-28T17:16:18.195Z,5.00
2017-09-28T17:18:47.607Z,4.23
2017-09-28T17:21:16.797Z,4.60
2017-09-28T17:23:53.593Z,4.60
2017-09-28T17:26:24.580Z,3.97
2017-09-28T17:28:53.833Z,4.50
2017-09-28T17:31:23.314Z,4.90
2017-09-28T17:33:52.875Z,4.70
2017-09-28T17:36:22.082Z,4.90
2017-09-28T17:39:12.518Z,6.27
2017-09-28T17:41:41.723Z,5.10
2017-09-28T17:44:11.098Z,4.60
2017-09-28T17:46:40.227Z,4.10
2017-09-28T17:49:16.886Z,5.00
2017-09-28T17:51:54.111Z,5.03
2017-09-28T17:54:35.945Z,4.80
2017-09-28T17:57:05.070Z,5.50
2017-09-28T17:59:34.486Z,6.47
2017-09-28T18:02:03.655Z,6.63
2017-09-28T18:04:32.779Z,6.03
2017-09-28T18:07:02.329Z,5.40
2017-09-28T18:09:32.486Z,5.00
2017-09-28T18:12:01.873Z,4.30
2017-09-28T18:14:31.129Z,5.60
2017-09-28T18:17:00.250Z,5.77
2017-09-28T18:19:29.374Z,5.80
2017-09-28T18:21:58.534Z,5.63
2017-09-28T18:24:41.496Z,5.30
2017-09-28T18:27:10.606Z,5.63
2017-09-28T18:29:39.738Z,5.60
2017-09-28T18:32:16.549Z,6.27
2017-09-28T18:34:45.858Z,5.47
2017-09-28T18:37:19.046Z,6.27
2017-09-28T18:39:55.231Z,5.97
2017-09-28T18:42:24.795Z,5.90
2017-09-28T18:45:01.130Z,6.73
2017-09-28T18:47:30.237Z,5.67
2017-09-28T18:49:59.345Z,5.67
2017-09-28T18:52:28.864Z,6.37
2017-09-28T18:54:57.971Z,7.23
2017-09-28T18:57:27.156Z,6.07
2017-09-28T18:59:56.540Z,6.20
2017-09-28T19:02:25.667Z,6.90
2017-09-28T19:04:55.033Z,8.60
2017-09-28T19:07:30.407Z,6.80
2017-09-28T19:10:13.127Z,6.37
2017-09-28T19:12:42.266Z,6.40
2017-09-28T19:15:11.385Z,6.47
2017-09-28T19:17:40.511Z,5.93
2017-09-28T19:20:09.701Z,6.47
2017-09-28T19:22:38.881Z,6.43
2017-09-28T19:25:08.086Z,6.20
2017-09-28T19:27:45.200Z,5.73
2017-09-28T19:30:14.660Z,5.83
2017-09-28T19:32:44.001Z,6.30
2017-09-28T19:35:13.282Z,5.73
2017-09-28T19:37:42.802Z,6.60
2017-09-28T19:40:11.958Z,5.30
2017-09-28T19:42:41.181Z,6.43
2017-09-28T19:45:10.723Z,5.57
2017-09-28T19:47:46.834Z,5.27
2017-09-28T19:50:15.978Z,6.40
2017-09-28T19:52:45.281Z,5.90
2017-09-28T19:55:14.460Z,5.73
2017-09-28T19:57:43.748Z,5.60
2017-09-28T20:00:13.120Z,5.70
2017-09-28T20:02:42.382Z,5.60
2017-09-28T20:05:11.875Z,5.97
2017-09-28T20:07:40.998Z,5.70
2017-09-28T20:10:10.335Z,6.17
2017-09-28T20:12:46.473Z,6.50
2017-09-28T20:15:15.661Z,5.50
2017-09-28T20:17:52.149Z,5.73
2017-09-28T20:20:21.363Z,4.87
2017-09-28T20:22:51.702Z,6.00
2017-09-28T20:25:21.094Z,5.80
2017-09-28T20:27:50.496Z,5.90
2017-09-28T20:30:20.123Z,5.50
2017-09-28T20:32:49.548Z,5.80
2017-09-28T20:35:18.677Z,5.70
2017-09-28T20:37:48.107Z,5.37
2017-09-28T20:40:19.067Z,5.73
2017-09-28T20:42:48.397Z,5.63
2017-09-28T20:45:31.283Z,5.43
2017-09-28T20:48:02.134Z,5.60
2017-09-28T20:50:31.276Z,5.53
2017-09-28T20:53:00.671Z,5.40
2017-09-28T20:55:29.947Z,4.70
2017-09-28T20:57:59.135Z,4.90
2017-09-28T21:00:28.325Z,5.20
2017-09-28T21:02:57.722Z,5.57
2017-09-28T21:05:26.825Z,5.70
2017-09-28T21:07:55.926Z,4.97
2017-09-28T21:10:25.466Z,4.93
2017-09-28T21:12:55.037Z,5.53
2017-09-28T21:15:26.224Z,5.40
2017-09-28T21:18:01.559Z,5.33
2017-09-28T21:20:37.554Z,5.10
2017-09-28T21:23:06.720Z,5.40
2017-09-28T21:25:35.855Z,6.03
2017-09-28T21:28:05.020Z,5.30
2017-09-28T21:30:34.153Z,4.60
2017-09-28T21:33:03.285Z,5.00
2017-09-28T21:35:32.423Z,4.90
2017-09-28T21:38:13.848Z,5.43
2017-09-28T21:40:43.175Z,5.27
2017-09-28T21:43:12.537Z,4.77
2017-09-28T21:45:47.759Z,5.60
2017-09-28T21:48:16.984Z,5.30
2017-09-28T21:50:47.900Z,5.00
2017-09-28T21:53:17.056Z,5.03
2017-09-28T21:56:00.110Z,36.70
2017-09-28T21:58:29.239Z,34.27
2017-09-28T22:01:06.246Z,10.30
2017-09-28T22:03:43.568Z,6.53
2017-09-28T22:06:25.609Z,5.87
2017-09-28T22:08:54.753Z,5.70
2017-09-28T22:11:24.116Z,5.27
2017-09-28T22:13:53.241Z,5.33
2017-09-28T22:16:28.630Z,5.23
2017-09-28T22:18:57.766Z,5.10
2017-09-28T22:21:26.867Z,5.40
2017-09-28T22:23:55.972Z,5.57
2017-09-28T22:26:25.174Z,5.70
2017-09-28T22:28:54.328Z,4.60
2017-09-28T22:31:23.525Z,5.00
2017-09-28T22:33:52.641Z,5.17
2017-09-28T22:36:27.758Z,4.97
2017-09-28T22:39:04.510Z,5.33
2017-09-28T22:41:33.632Z,5.30
2017-09-28T22:44:02.769Z,5.13
2017-09-28T22:46:31.874Z,5.57
2017-09-28T22:49:01.021Z,5.17
2017-09-28T22:51:37.077Z,5.53
2017-09-28T22:54:06.217Z,5.33
2017-09-28T22:56:35.391Z,13.67
2017-09-28T22:59:04.582Z,42.97
2017-09-28T23:01:34.507Z,18.77
2017-09-28T23:04:03.642Z,6.90
2017-09-28T23:06:38.795Z,6.07
2017-09-28T23:09:08.466Z,6.33
2017-09-28T23:11:37.593Z,5.30
2017-09-28T23:14:07.248Z,5.50
2017-09-28T23:16:36.598Z,5.33
2017-09-28T23:19:05.731Z,5.40
2017-09-28T23:21:34.852Z,5.57
2017-09-28T23:24:04.669Z,5.80
2017-09-28T23:26:33.791Z,5.17
2017-09-28T23:29:02.910Z,5.70
2017-09-28T23:31:32.196Z,6.00
2017-09-28T23:34:01.628Z,5.63
2017-09-28T23:36:30.770Z,5.00
2017-09-28T23:38:59.898Z,5.30
2017-09-28T23:41:29.041Z,5.70
2017-09-28T23:43:58.128Z,5.93
2017-09-28T23:46:27.230Z,4.90
2017-09-28T23:48:56.369Z,6.23
2017-09-28T23:51:39.466Z,5.60
2017-09-28T23:54:10.125Z,5.87
2017-09-28T23:56:39.262Z,5.20
2017-09-28T23:59:08.373Z,5.10
